sensor_id;sensor_type;location;lat;lon;timestamp;P1;durP1;ratioP1;P2;durP2;ratioP2
15130;SDS011;7666;50.920;4.628;2023-07-31T00:00:02;11.17;;;4.73;;
15130;SDS011;7666;50.920;4.628;2023-07-31T00:02:48;14.07;;;5.10;;
15130;SDS011;7666;50.920;4.628;2023-07-31T00:05:34;10.53;;;5.33;;
15130;SDS011;7666;50.920;4.628;2023-07-31T00:08:20;11.90;;;5.20;;
15130;SDS011;7666;50.920;4.628;2023-07-31T00:11:06;14.73;;;5.70;;
15130;SDS011;7666;50.920;4.628;2023-07-31T00:13:53;16.57;;;5.80;;
15130;SDS011;7666;50.920;4.628;2023-07-31T00:16:39;9.97;;;5.13;;
15130;SDS011;7666;50.920;4.628;2023-07-31T00:19:25;17.43;;;6.23;;
15130;SDS011;7666;50.920;4.628;2023-07-31T00:22:10;14.37;;;5.23;;
15130;SDS011;7666;50.920;4.628;2023-07-31T00:24:57;14.33;;;5.13;;
15130;SDS011;7666;50.920;4.628;2023-07-31T00:27:43;13.20;;;5.77;;
15130;SDS011;7666;50.920;4.628;2023-07-31T00:30:31;16.13;;;5.30;;
15130;SDS011;7666;50.920;4.628;2023-07-31T00:33:17;16.33;;;5.50;;
15130;SDS011;7666;50.920;4.628;2023-07-31T00:36:03;15.00;;;5.63;;
15130;SDS011;7666;50.920;4.628;2023-07-31T00:38:49;16.23;;;5.60;;
15130;SDS011;7666;50.920;4.628;2023-07-31T00:41:35;15.83;;;5.87;;
15130;SDS011;7666;50.920;4.628;2023-07-31T00:44:21;16.13;;;6.53;;
15130;SDS011;7666;50.920;4.628;2023-07-31T00:47:07;12.83;;;5.40;;
15130;SDS011;7666;50.920;4.628;2023-07-31T00:49:53;14.67;;;6.00;;
15130;SDS011;7666;50.920;4.628;2023-07-31T00:52:40;16.50;;;5.53;;
15130;SDS011;7666;50.920;4.628;2023-07-31T00:55:26;13.40;;;5.70;;
15130;SDS011;7666;50.920;4.628;2023-07-31T00:58:12;15.90;;;6.10;;
15130;SDS011;7666;50.920;4.628;2023-07-31T01:00:58;14.03;;;5.40;;
15130;SDS011;7666;50.920;4.628;2023-07-31T01:03:44;18.00;;;6.23;;
15130;SDS011;7666;50.920;4.628;2023-07-31T01:12:24;13.87;;;5.50;;
15130;SDS011;7666;50.920;4.628;2023-07-31T01:15:13;14.53;;;5.83;;
15130;SDS011;7666;50.920;4.628;2023-07-31T01:18:00;13.60;;;5.33;;
15130;SDS011;7666;50.920;4.628;2023-07-31T01:20:46;9.87;;;4.77;;
15130;SDS011;7666;50.920;4.628;2023-07-31T01:26:56;14.50;;;5.93;;
15130;SDS011;7666;50.920;4.628;2023-07-31T01:32:59;13.00;;;5.53;;
15130;SDS011;7666;50.920;4.628;2023-07-31T01:35:51;11.87;;;5.57;;
15130;SDS011;7666;50.920;4.628;2023-07-31T01:38:38;15.07;;;6.30;;
15130;SDS011;7666;50.920;4.628;2023-07-31T01:41:24;14.23;;;5.20;;
15130;SDS011;7666;50.920;4.628;2023-07-31T01:44:10;13.53;;;5.13;;
15130;SDS011;7666;50.920;4.628;2023-07-31T01:46:56;13.43;;;5.67;;
15130;SDS011;7666;50.920;4.628;2023-07-31T01:49:42;14.30;;;5.10;;
15130;SDS011;7666;50.920;4.628;2023-07-31T01:52:28;12.13;;;5.60;;
15130;SDS011;7666;50.920;4.628;2023-07-31T01:55:15;13.13;;;5.47;;
15130;SDS011;7666;50.920;4.628;2023-07-31T01:58:01;14.00;;;5.83;;
15130;SDS011;7666;50.920;4.628;2023-07-31T02:00:47;13.17;;;5.50;;
15130;SDS011;7666;50.920;4.628;2023-07-31T02:03:33;11.37;;;5.40;;
15130;SDS011;7666;50.920;4.628;2023-07-31T02:06:19;12.60;;;5.87;;
15130;SDS011;7666;50.920;4.628;2023-07-31T02:09:05;11.67;;;5.67;;
15130;SDS011;7666;50.920;4.628;2023-07-31T02:11:51;11.93;;;4.97;;
15130;SDS011;7666;50.920;4.628;2023-07-31T02:14:37;12.80;;;5.20;;
15130;SDS011;7666;50.920;4.628;2023-07-31T02:17:23;12.23;;;5.63;;
15130;SDS011;7666;50.920;4.628;2023-07-31T02:20:09;11.83;;;5.40;;
15130;SDS011;7666;50.920;4.628;2023-07-31T02:22:55;14.50;;;5.27;;
15130;SDS011;7666;50.920;4.628;2023-07-31T02:25:41;12.87;;;6.10;;
15130;SDS011;7666;50.920;4.628;2023-07-31T02:28:28;13.03;;;5.60;;
15130;SDS011;7666;50.920;4.628;2023-07-31T02:31:15;10.60;;;5.43;;
15130;SDS011;7666;50.920;4.628;2023-07-31T02:34:01;11.70;;;5.43;;
15130;SDS011;7666;50.920;4.628;2023-07-31T02:36:47;12.17;;;5.60;;
15130;SDS011;7666;50.920;4.628;2023-07-31T02:39:32;12.20;;;5.37;;
15130;SDS011;7666;50.920;4.628;2023-07-31T02:42:18;12.07;;;5.57;;
15130;SDS011;7666;50.920;4.628;2023-07-31T02:45:05;12.90;;;5.63;;
15130;SDS011;7666;50.920;4.628;2023-07-31T02:47:51;10.90;;;5.40;;
15130;SDS011;7666;50.920;4.628;2023-07-31T02:50:37;12.23;;;5.90;;
15130;SDS011;7666;50.920;4.628;2023-07-31T02:53:23;12.20;;;5.40;;
15130;SDS011;7666;50.920;4.628;2023-07-31T02:56:09;7.83;;;5.07;;
15130;SDS011;7666;50.920;4.628;2023-07-31T02:58:55;10.00;;;5.30;;
15130;SDS011;7666;50.920;4.628;2023-07-31T03:01:40;9.10;;;5.50;;
15130;SDS011;7666;50.920;4.628;2023-07-31T03:04:26;9.63;;;5.07;;
15130;SDS011;7666;50.920;4.628;2023-07-31T03:07:12;11.07;;;5.47;;
15130;SDS011;7666;50.920;4.628;2023-07-31T03:09:58;12.77;;;6.23;;
15130;SDS011;7666;50.920;4.628;2023-07-31T03:12:46;11.60;;;5.40;;
15130;SDS011;7666;50.920;4.628;2023-07-31T03:15:32;9.03;;;5.17;;
15130;SDS011;7666;50.920;4.628;2023-07-31T03:18:18;9.40;;;5.10;;
15130;SDS011;7666;50.920;4.628;2023-07-31T03:21:04;10.00;;;4.90;;
15130;SDS011;7666;50.920;4.628;2023-07-31T03:23:50;8.67;;;4.90;;
15130;SDS011;7666;50.920;4.628;2023-07-31T03:26:36;7.67;;;4.97;;
15130;SDS011;7666;50.920;4.628;2023-07-31T03:29:22;9.10;;;5.10;;
15130;SDS011;7666;50.920;4.628;2023-07-31T03:32:08;9.90;;;4.63;;
15130;SDS011;7666;50.920;4.628;2023-07-31T03:34:54;8.80;;;5.17;;
15130;SDS011;7666;50.920;4.628;2023-07-31T03:37:40;9.17;;;4.30;;
15130;SDS011;7666;50.920;4.628;2023-07-31T03:40:26;10.10;;;5.17;;
15130;SDS011;7666;50.920;4.628;2023-07-31T03:43:12;8.07;;;4.87;;
15130;SDS011;7666;50.920;4.628;2023-07-31T03:45:58;8.50;;;4.73;;
15130;SDS011;7666;50.920;4.628;2023-07-31T03:48:45;7.40;;;4.80;;
15130;SDS011;7666;50.920;4.628;2023-07-31T03:51:31;6.90;;;4.50;;
15130;SDS011;7666;50.920;4.628;2023-07-31T03:54:17;9.67;;;5.20;;
15130;SDS011;7666;50.920;4.628;2023-07-31T03:57:03;11.37;;;5.50;;
15130;SDS011;7666;50.920;4.628;2023-07-31T03:59:49;8.60;;;4.63;;
15130;SDS011;7666;50.920;4.628;2023-07-31T04:02:35;10.07;;;5.53;;
15130;SDS011;7666;50.920;4.628;2023-07-31T04:05:21;7.87;;;4.77;;
15130;SDS011;7666;50.920;4.628;2023-07-31T04:08:07;10.67;;;5.43;;
15130;SDS011;7666;50.920;4.628;2023-07-31T04:10:53;10.83;;;4.93;;
15130;SDS011;7666;50.920;4.628;2023-07-31T04:13:39;10.60;;;4.97;;
15130;SDS011;7666;50.920;4.628;2023-07-31T04:16:25;10.03;;;5.30;;
15130;SDS011;7666;50.920;4.628;2023-07-31T04:19:11;7.10;;;4.50;;
15130;SDS011;7666;50.920;4.628;2023-07-31T04:22:01;5.57;;;4.47;;
15130;SDS011;7666;50.920;4.628;2023-07-31T04:24:49;8.13;;;4.83;;
15130;SDS011;7666;50.920;4.628;2023-07-31T04:27:34;9.50;;;5.20;;
15130;SDS011;7666;50.920;4.628;2023-07-31T04:30:20;11.17;;;5.10;;
15130;SDS011;7666;50.920;4.628;2023-07-31T04:33:06;9.53;;;4.90;;
15130;SDS011;7666;50.920;4.628;2023-07-31T04:35:52;8.13;;;4.47;;
15130;SDS011;7666;50.920;4.628;2023-07-31T04:38:39;7.77;;;5.07;;
15130;SDS011;7666;50.920;4.628;2023-07-31T04:41:26;7.90;;;4.77;;
15130;SDS011;7666;50.920;4.628;2023-07-31T04:44:13;9.87;;;4.60;;
15130;SDS011;7666;50.920;4.628;2023-07-31T04:46:59;6.13;;;4.60;;
15130;SDS011;7666;50.920;4.628;2023-07-31T04:49:45;10.73;;;4.90;;
15130;SDS011;7666;50.920;4.628;2023-07-31T04:52:31;6.67;;;4.50;;
15130;SDS011;7666;50.920;4.628;2023-07-31T04:55:18;8.27;;;4.53;;
15130;SDS011;7666;50.920;4.628;2023-07-31T04:58:04;8.00;;;4.50;;
15130;SDS011;7666;50.920;4.628;2023-07-31T05:00:50;8.53;;;5.00;;
15130;SDS011;7666;50.920;4.628;2023-07-31T05:03:36;6.10;;;4.23;;
15130;SDS011;7666;50.920;4.628;2023-07-31T05:06:22;8.03;;;4.30;;
15130;SDS011;7666;50.920;4.628;2023-07-31T05:09:08;8.13;;;4.70;;
15130;SDS011;7666;50.920;4.628;2023-07-31T05:11:54;10.07;;;4.93;;
15130;SDS011;7666;50.920;4.628;2023-07-31T05:14:40;7.13;;;4.60;;
15130;SDS011;7666;50.920;4.628;2023-07-31T05:17:26;7.57;;;4.47;;
15130;SDS011;7666;50.920;4.628;2023-07-31T05:20:12;7.77;;;4.57;;
15130;SDS011;7666;50.920;4.628;2023-07-31T05:22:58;9.30;;;4.70;;
15130;SDS011;7666;50.920;4.628;2023-07-31T05:25:44;7.93;;;4.83;;
15130;SDS011;7666;50.920;4.628;2023-07-31T05:28:30;6.10;;;4.43;;
15130;SDS011;7666;50.920;4.628;2023-07-31T05:31:16;7.33;;;5.03;;
15130;SDS011;7666;50.920;4.628;2023-07-31T05:34:02;5.77;;;4.13;;
15130;SDS011;7666;50.920;4.628;2023-07-31T05:36:48;6.67;;;3.93;;
15130;SDS011;7666;50.920;4.628;2023-07-31T05:39:34;7.93;;;4.27;;
15130;SDS011;7666;50.920;4.628;2023-07-31T05:42:20;7.30;;;4.53;;
15130;SDS011;7666;50.920;4.628;2023-07-31T05:45:06;6.50;;;4.07;;
15130;SDS011;7666;50.920;4.628;2023-07-31T05:47:53;6.47;;;4.50;;
15130;SDS011;7666;50.920;4.628;2023-07-31T05:50:39;6.00;;;4.33;;
15130;SDS011;7666;50.920;4.628;2023-07-31T05:53:25;5.83;;;4.10;;
15130;SDS011;7666;50.920;4.628;2023-07-31T05:56:11;6.57;;;4.03;;
15130;SDS011;7666;50.920;4.628;2023-07-31T05:58:57;6.27;;;3.93;;
15130;SDS011;7666;50.920;4.628;2023-07-31T06:01:43;8.63;;;4.27;;
15130;SDS011;7666;50.920;4.628;2023-07-31T06:04:29;9.23;;;4.83;;
15130;SDS011;7666;50.920;4.628;2023-07-31T06:07:15;7.67;;;4.30;;
15130;SDS011;7666;50.920;4.628;2023-07-31T06:10:01;6.67;;;4.50;;
15130;SDS011;7666;50.920;4.628;2023-07-31T06:12:51;7.47;;;4.50;;
15130;SDS011;7666;50.920;4.628;2023-07-31T06:15:36;9.77;;;4.93;;
15130;SDS011;7666;50.920;4.628;2023-07-31T06:18:22;10.13;;;4.30;;
15130;SDS011;7666;50.920;4.628;2023-07-31T06:21:09;9.50;;;4.70;;
15130;SDS011;7666;50.920;4.628;2023-07-31T06:23:56;6.33;;;4.17;;
15130;SDS011;7666;50.920;4.628;2023-07-31T06:26:42;8.33;;;4.80;;
15130;SDS011;7666;50.920;4.628;2023-07-31T06:29:28;10.00;;;4.63;;
15130;SDS011;7666;50.920;4.628;2023-07-31T06:32:14;7.20;;;4.57;;
15130;SDS011;7666;50.920;4.628;2023-07-31T06:34:59;10.00;;;4.77;;
15130;SDS011;7666;50.920;4.628;2023-07-31T06:37:45;8.00;;;4.50;;
15130;SDS011;7666;50.920;4.628;2023-07-31T06:40:31;6.50;;;4.50;;
15130;SDS011;7666;50.920;4.628;2023-07-31T06:43:17;7.23;;;4.40;;
15130;SDS011;7666;50.920;4.628;2023-07-31T06:46:04;7.43;;;4.20;;
15130;SDS011;7666;50.920;4.628;2023-07-31T06:48:54;6.93;;;4.10;;
15130;SDS011;7666;50.920;4.628;2023-07-31T06:51:40;10.83;;;4.53;;
15130;SDS011;7666;50.920;4.628;2023-07-31T06:54:26;9.73;;;4.50;;
15130;SDS011;7666;50.920;4.628;2023-07-31T06:57:12;7.37;;;4.40;;
15130;SDS011;7666;50.920;4.628;2023-07-31T06:59:58;6.37;;;3.90;;
15130;SDS011;7666;50.920;4.628;2023-07-31T07:02:44;7.73;;;3.90;;
15130;SDS011;7666;50.920;4.628;2023-07-31T07:05:32;8.80;;;4.40;;
15130;SDS011;7666;50.920;4.628;2023-07-31T07:08:18;7.50;;;4.10;;
15130;SDS011;7666;50.920;4.628;2023-07-31T07:11:04;6.67;;;3.90;;
15130;SDS011;7666;50.920;4.628;2023-07-31T07:13:50;7.43;;;4.00;;
15130;SDS011;7666;50.920;4.628;2023-07-31T07:16:36;7.27;;;4.00;;
15130;SDS011;7666;50.920;4.628;2023-07-31T07:19:23;7.63;;;3.70;;
15130;SDS011;7666;50.920;4.628;2023-07-31T07:22:09;8.83;;;4.40;;
15130;SDS011;7666;50.920;4.628;2023-07-31T07:24:55;8.73;;;4.23;;
15130;SDS011;7666;50.920;4.628;2023-07-31T07:27:41;8.77;;;3.77;;
15130;SDS011;7666;50.920;4.628;2023-07-31T07:30:27;5.73;;;3.60;;
15130;SDS011;7666;50.920;4.628;2023-07-31T07:33:13;6.87;;;3.50;;
15130;SDS011;7666;50.920;4.628;2023-07-31T07:36:00;7.00;;;3.93;;
15130;SDS011;7666;50.920;4.628;2023-07-31T07:38:47;7.03;;;3.53;;
15130;SDS011;7666;50.920;4.628;2023-07-31T07:41:33;8.20;;;3.77;;
15130;SDS011;7666;50.920;4.628;2023-07-31T07:44:19;7.93;;;3.83;;
15130;SDS011;7666;50.920;4.628;2023-07-31T07:47:05;7.63;;;3.60;;
15130;SDS011;7666;50.920;4.628;2023-07-31T07:49:53;6.63;;;3.43;;
15130;SDS011;7666;50.920;4.628;2023-07-31T07:52:39;6.13;;;3.70;;
15130;SDS011;7666;50.920;4.628;2023-07-31T07:55:25;5.07;;;3.10;;
15130;SDS011;7666;50.920;4.628;2023-07-31T07:58:11;6.07;;;2.93;;
15130;SDS011;7666;50.920;4.628;2023-07-31T08:00:57;7.20;;;3.40;;
15130;SDS011;7666;50.920;4.628;2023-07-31T08:03:43;7.67;;;3.97;;
15130;SDS011;7666;50.920;4.628;2023-07-31T08:06:29;8.33;;;3.97;;
15130;SDS011;7666;50.920;4.628;2023-07-31T08:09:15;9.97;;;3.70;;
15130;SDS011;7666;50.920;4.628;2023-07-31T08:12:01;4.93;;;3.20;;
15130;SDS011;7666;50.920;4.628;2023-07-31T08:14:48;8.20;;;3.50;;
15130;SDS011;7666;50.920;4.628;2023-07-31T08:17:34;8.33;;;3.43;;
15130;SDS011;7666;50.920;4.628;2023-07-31T08:20:20;6.07;;;3.20;;
15130;SDS011;7666;50.920;4.628;2023-07-31T08:23:06;3.83;;;3.03;;
15130;SDS011;7666;50.920;4.628;2023-07-31T08:25:52;4.83;;;3.17;;
15130;SDS011;7666;50.920;4.628;2023-07-31T08:28:38;6.00;;;2.93;;
15130;SDS011;7666;50.920;4.628;2023-07-31T08:31:25;5.07;;;2.70;;
15130;SDS011;7666;50.920;4.628;2023-07-31T08:34:12;4.77;;;2.90;;
15130;SDS011;7666;50.920;4.628;2023-07-31T08:36:58;4.93;;;3.10;;
15130;SDS011;7666;50.920;4.628;2023-07-31T08:39:44;4.77;;;2.97;;
15130;SDS011;7666;50.920;4.628;2023-07-31T08:42:30;5.90;;;2.80;;
15130;SDS011;7666;50.920;4.628;2023-07-31T08:45:17;5.83;;;2.77;;
15130;SDS011;7666;50.920;4.628;2023-07-31T08:48:04;7.40;;;2.87;;
15130;SDS011;7666;50.920;4.628;2023-07-31T08:50:51;4.77;;;2.67;;
15130;SDS011;7666;50.920;4.628;2023-07-31T08:53:38;4.70;;;2.70;;
15130;SDS011;7666;50.920;4.628;2023-07-31T08:56:24;8.47;;;3.50;;
15130;SDS011;7666;50.920;4.628;2023-07-31T08:59:12;7.17;;;3.30;;
15130;SDS011;7666;50.920;4.628;2023-07-31T09:02:03;7.20;;;3.13;;
15130;SDS011;7666;50.920;4.628;2023-07-31T09:04:52;5.30;;;2.90;;
15130;SDS011;7666;50.920;4.628;2023-07-31T09:07:38;7.23;;;3.17;;
15130;SDS011;7666;50.920;4.628;2023-07-31T09:10:25;6.47;;;3.20;;
15130;SDS011;7666;50.920;4.628;2023-07-31T09:13:12;4.17;;;2.80;;
15130;SDS011;7666;50.920;4.628;2023-07-31T09:15:59;6.90;;;3.40;;
15130;SDS011;7666;50.920;4.628;2023-07-31T09:18:54;6.97;;;3.20;;
15130;SDS011;7666;50.920;4.628;2023-07-31T09:21:47;6.17;;;3.20;;
15130;SDS011;7666;50.920;4.628;2023-07-31T09:24:34;6.27;;;3.10;;
15130;SDS011;7666;50.920;4.628;2023-07-31T09:27:20;4.83;;;3.30;;
15130;SDS011;7666;50.920;4.628;2023-07-31T09:30:06;7.27;;;3.67;;
15130;SDS011;7666;50.920;4.628;2023-07-31T09:33:05;8.37;;;3.90;;
15130;SDS011;7666;50.920;4.628;2023-07-31T09:35:52;6.30;;;3.67;;
15130;SDS011;7666;50.920;4.628;2023-07-31T09:38:38;9.47;;;3.70;;
15130;SDS011;7666;50.920;4.628;2023-07-31T09:41:24;8.20;;;3.43;;
15130;SDS011;7666;50.920;4.628;2023-07-31T09:44:10;6.13;;;3.13;;
15130;SDS011;7666;50.920;4.628;2023-07-31T09:46:56;5.03;;;3.30;;
15130;SDS011;7666;50.920;4.628;2023-07-31T09:49:45;5.50;;;3.30;;
15130;SDS011;7666;50.920;4.628;2023-07-31T09:52:31;6.47;;;3.37;;
15130;SDS011;7666;50.920;4.628;2023-07-31T09:55:17;3.93;;;2.90;;
15130;SDS011;7666;50.920;4.628;2023-07-31T09:58:08;5.10;;;3.00;;
15130;SDS011;7666;50.920;4.628;2023-07-31T10:00:54;4.67;;;2.63;;
15130;SDS011;7666;50.920;4.628;2023-07-31T10:03:43;4.10;;;3.00;;
15130;SDS011;7666;50.920;4.628;2023-07-31T10:06:32;5.37;;;3.00;;
15130;SDS011;7666;50.920;4.628;2023-07-31T10:09:20;7.07;;;3.30;;
15130;SDS011;7666;50.920;4.628;2023-07-31T10:12:08;5.30;;;3.10;;
15130;SDS011;7666;50.920;4.628;2023-07-31T10:14:57;6.83;;;3.23;;
15130;SDS011;7666;50.920;4.628;2023-07-31T10:17:48;6.60;;;3.20;;
15130;SDS011;7666;50.920;4.628;2023-07-31T10:20:35;8.40;;;3.67;;
15130;SDS011;7666;50.920;4.628;2023-07-31T10:23:22;5.23;;;3.53;;
15130;SDS011;7666;50.920;4.628;2023-07-31T10:26:10;4.30;;;3.00;;
15130;SDS011;7666;50.920;4.628;2023-07-31T10:28:58;5.67;;;3.73;;
15130;SDS011;7666;50.920;4.628;2023-07-31T10:31:46;5.93;;;3.50;;
15130;SDS011;7666;50.920;4.628;2023-07-31T10:34:36;8.73;;;4.10;;
15130;SDS011;7666;50.920;4.628;2023-07-31T10:37:28;6.60;;;3.70;;
15130;SDS011;7666;50.920;4.628;2023-07-31T10:40:19;6.20;;;3.70;;
15130;SDS011;7666;50.920;4.628;2023-07-31T10:43:09;6.73;;;3.90;;
15130;SDS011;7666;50.920;4.628;2023-07-31T10:46:09;9.77;;;3.87;;
15130;SDS011;7666;50.920;4.628;2023-07-31T10:48:59;6.67;;;3.70;;
15130;SDS011;7666;50.920;4.628;2023-07-31T10:51:47;7.93;;;3.93;;
15130;SDS011;7666;50.920;4.628;2023-07-31T10:54:33;5.43;;;3.83;;
15130;SDS011;7666;50.920;4.628;2023-07-31T10:57:22;6.37;;;3.53;;
15130;SDS011;7666;50.920;4.628;2023-07-31T11:00:28;8.17;;;4.17;;
15130;SDS011;7666;50.920;4.628;2023-07-31T11:03:15;7.13;;;3.87;;
15130;SDS011;7666;50.920;4.628;2023-07-31T11:06:03;7.67;;;4.27;;
15130;SDS011;7666;50.920;4.628;2023-07-31T11:08:50;8.67;;;4.53;;
15130;SDS011;7666;50.920;4.628;2023-07-31T11:11:36;9.00;;;4.33;;
15130;SDS011;7666;50.920;4.628;2023-07-31T11:14:22;9.50;;;3.97;;
15130;SDS011;7666;50.920;4.628;2023-07-31T11:17:09;8.17;;;4.23;;
15130;SDS011;7666;50.920;4.628;2023-07-31T11:19:54;7.77;;;4.27;;
15130;SDS011;7666;50.920;4.628;2023-07-31T11:22:40;6.87;;;3.97;;
15130;SDS011;7666;50.920;4.628;2023-07-31T11:25:28;8.83;;;4.50;;
15130;SDS011;7666;50.920;4.628;2023-07-31T11:28:17;7.70;;;4.10;;
15130;SDS011;7666;50.920;4.628;2023-07-31T11:31:05;8.90;;;4.37;;
15130;SDS011;7666;50.920;4.628;2023-07-31T11:34:06;9.67;;;4.47;;
15130;SDS011;7666;50.920;4.628;2023-07-31T11:36:55;7.37;;;4.30;;
15130;SDS011;7666;50.920;4.628;2023-07-31T11:39:41;11.43;;;4.77;;
15130;SDS011;7666;50.920;4.628;2023-07-31T11:42:27;7.27;;;4.33;;
15130;SDS011;7666;50.920;4.628;2023-07-31T11:45:13;7.37;;;4.27;;
15130;SDS011;7666;50.920;4.628;2023-07-31T11:47:59;6.27;;;4.40;;
15130;SDS011;7666;50.920;4.628;2023-07-31T11:50:46;8.00;;;4.27;;
15130;SDS011;7666;50.920;4.628;2023-07-31T11:56:31;7.13;;;4.40;;
15130;SDS011;7666;50.920;4.628;2023-07-31T11:59:17;7.33;;;4.13;;
15130;SDS011;7666;50.920;4.628;2023-07-31T12:02:03;10.23;;;4.57;;
15130;SDS011;7666;50.920;4.628;2023-07-31T12:04:49;7.80;;;4.37;;
15130;SDS011;7666;50.920;4.628;2023-07-31T12:08:09;9.50;;;4.77;;
15130;SDS011;7666;50.920;4.628;2023-07-31T12:10:54;7.23;;;4.20;;
15130;SDS011;7666;50.920;4.628;2023-07-31T12:13:47;7.63;;;4.30;;
15130;SDS011;7666;50.920;4.628;2023-07-31T12:16:32;8.83;;;4.50;;
15130;SDS011;7666;50.920;4.628;2023-07-31T12:19:18;6.97;;;4.43;;
15130;SDS011;7666;50.920;4.628;2023-07-31T12:22:23;9.63;;;4.30;;
15130;SDS011;7666;50.920;4.628;2023-07-31T12:25:14;8.20;;;4.43;;
15130;SDS011;7666;50.920;4.628;2023-07-31T12:28:04;9.83;;;4.70;;
15130;SDS011;7666;50.920;4.628;2023-07-31T12:30:52;7.83;;;4.47;;
15130;SDS011;7666;50.920;4.628;2023-07-31T12:33:43;8.10;;;4.33;;
15130;SDS011;7666;50.920;4.628;2023-07-31T12:36:30;10.77;;;4.37;;
15130;SDS011;7666;50.920;4.628;2023-07-31T12:39:20;9.23;;;4.37;;
15130;SDS011;7666;50.920;4.628;2023-07-31T12:42:06;10.87;;;4.17;;
15130;SDS011;7666;50.920;4.628;2023-07-31T12:44:52;6.43;;;4.00;;
15130;SDS011;7666;50.920;4.628;2023-07-31T12:47:38;7.50;;;4.40;;
15130;SDS011;7666;50.920;4.628;2023-07-31T12:50:24;6.23;;;4.23;;
15130;SDS011;7666;50.920;4.628;2023-07-31T12:53:11;8.73;;;4.47;;
15130;SDS011;7666;50.920;4.628;2023-07-31T12:55:57;7.77;;;4.20;;
15130;SDS011;7666;50.920;4.628;2023-07-31T12:58:43;12.10;;;5.17;;
15130;SDS011;7666;50.920;4.628;2023-07-31T13:01:29;8.03;;;4.23;;
15130;SDS011;7666;50.920;4.628;2023-07-31T13:04:15;8.87;;;4.77;;
15130;SDS011;7666;50.920;4.628;2023-07-31T13:07:01;8.57;;;4.87;;
15130;SDS011;7666;50.920;4.628;2023-07-31T13:09:47;7.37;;;4.30;;
15130;SDS011;7666;50.920;4.628;2023-07-31T13:12:33;9.80;;;4.50;;
15130;SDS011;7666;50.920;4.628;2023-07-31T13:15:19;10.37;;;4.90;;
15130;SDS011;7666;50.920;4.628;2023-07-31T13:18:05;7.57;;;4.50;;
15130;SDS011;7666;50.920;4.628;2023-07-31T13:20:51;9.10;;;4.53;;
15130;SDS011;7666;50.920;4.628;2023-07-31T13:23:37;9.57;;;4.40;;
15130;SDS011;7666;50.920;4.628;2023-07-31T13:26:23;7.67;;;4.17;;
15130;SDS011;7666;50.920;4.628;2023-07-31T13:29:09;7.60;;;3.60;;
15130;SDS011;7666;50.920;4.628;2023-07-31T13:31:56;7.20;;;3.47;;
15130;SDS011;7666;50.920;4.628;2023-07-31T13:34:42;6.33;;;3.40;;
15130;SDS011;7666;50.920;4.628;2023-07-31T13:37:28;6.67;;;3.20;;
15130;SDS011;7666;50.920;4.628;2023-07-31T13:40:14;7.07;;;3.63;;
15130;SDS011;7666;50.920;4.628;2023-07-31T13:43:00;7.30;;;3.80;;
15130;SDS011;7666;50.920;4.628;2023-07-31T13:45:46;10.70;;;3.50;;
15130;SDS011;7666;50.920;4.628;2023-07-31T13:48:35;6.37;;;3.83;;
15130;SDS011;7666;50.920;4.628;2023-07-31T13:51:21;7.77;;;3.67;;
15130;SDS011;7666;50.920;4.628;2023-07-31T13:54:07;5.27;;;3.17;;
15130;SDS011;7666;50.920;4.628;2023-07-31T13:56:53;4.83;;;2.83;;
15130;SDS011;7666;50.920;4.628;2023-07-31T13:59:40;6.80;;;3.23;;
15130;SDS011;7666;50.920;4.628;2023-07-31T14:02:26;4.90;;;2.73;;
15130;SDS011;7666;50.920;4.628;2023-07-31T14:05:11;4.33;;;2.70;;
15130;SDS011;7666;50.920;4.628;2023-07-31T14:07:57;5.93;;;2.90;;
15130;SDS011;7666;50.920;4.628;2023-07-31T14:10:43;4.27;;;2.83;;
15130;SDS011;7666;50.920;4.628;2023-07-31T14:13:29;5.70;;;2.80;;
15130;SDS011;7666;50.920;4.628;2023-07-31T14:16:15;3.67;;;2.63;;
15130;SDS011;7666;50.920;4.628;2023-07-31T14:19:01;4.37;;;2.90;;
15130;SDS011;7666;50.920;4.628;2023-07-31T14:21:47;3.63;;;2.57;;
15130;SDS011;7666;50.920;4.628;2023-07-31T14:24:33;4.63;;;2.60;;
15130;SDS011;7666;50.920;4.628;2023-07-31T14:27:20;3.03;;;2.47;;
15130;SDS011;7666;50.920;4.628;2023-07-31T14:30:06;4.97;;;2.60;;
15130;SDS011;7666;50.920;4.628;2023-07-31T14:32:52;4.00;;;2.53;;
15130;SDS011;7666;50.920;4.628;2023-07-31T14:35:38;4.80;;;2.80;;
15130;SDS011;7666;50.920;4.628;2023-07-31T14:38:24;5.20;;;3.30;;
15130;SDS011;7666;50.920;4.628;2023-07-31T14:41:10;6.00;;;3.00;;
15130;SDS011;7666;50.920;4.628;2023-07-31T14:43:56;5.37;;;2.97;;
15130;SDS011;7666;50.920;4.628;2023-07-31T14:46:42;5.07;;;3.00;;
15130;SDS011;7666;50.920;4.628;2023-07-31T14:49:28;3.80;;;2.80;;
15130;SDS011;7666;50.920;4.628;2023-07-31T14:52:14;5.17;;;2.80;;
15130;SDS011;7666;50.920;4.628;2023-07-31T14:55:00;3.50;;;2.53;;
15130;SDS011;7666;50.920;4.628;2023-07-31T14:57:46;4.47;;;2.37;;
15130;SDS011;7666;50.920;4.628;2023-07-31T15:00:32;4.07;;;2.63;;
15130;SDS011;7666;50.920;4.628;2023-07-31T15:03:18;4.93;;;3.10;;
15130;SDS011;7666;50.920;4.628;2023-07-31T15:06:04;4.57;;;2.60;;
15130;SDS011;7666;50.920;4.628;2023-07-31T15:08:53;4.90;;;3.00;;
15130;SDS011;7666;50.920;4.628;2023-07-31T15:11:39;3.43;;;2.23;;
15130;SDS011;7666;50.920;4.628;2023-07-31T15:14:25;2.80;;;2.13;;
15130;SDS011;7666;50.920;4.628;2023-07-31T15:17:13;2.40;;;2.10;;
15130;SDS011;7666;50.920;4.628;2023-07-31T15:19:59;4.00;;;2.23;;
15130;SDS011;7666;50.920;4.628;2023-07-31T15:22:45;2.80;;;2.40;;
15130;SDS011;7666;50.920;4.628;2023-07-31T15:25:31;3.50;;;2.07;;
15130;SDS011;7666;50.920;4.628;2023-07-31T15:28:18;3.50;;;2.10;;
15130;SDS011;7666;50.920;4.628;2023-07-31T15:31:04;5.87;;;1.90;;
15130;SDS011;7666;50.920;4.628;2023-07-31T15:33:50;4.03;;;2.10;;
15130;SDS011;7666;50.920;4.628;2023-07-31T15:36:36;2.83;;;1.77;;
15130;SDS011;7666;50.920;4.628;2023-07-31T15:39:22;3.23;;;2.10;;
15130;SDS011;7666;50.920;4.628;2023-07-31T15:42:08;3.40;;;1.87;;
15130;SDS011;7666;50.920;4.628;2023-07-31T15:44:54;2.07;;;1.70;;
15130;SDS011;7666;50.920;4.628;2023-07-31T15:47:40;2.10;;;1.50;;
15130;SDS011;7666;50.920;4.628;2023-07-31T15:50:26;2.03;;;1.40;;
15130;SDS011;7666;50.920;4.628;2023-07-31T15:53:12;1.87;;;1.30;;
15130;SDS011;7666;50.920;4.628;2023-07-31T15:55:58;1.63;;;1.20;;
15130;SDS011;7666;50.920;4.628;2023-07-31T15:58:44;4.00;;;1.20;;
15130;SDS011;7666;50.920;4.628;2023-07-31T16:01:30;1.10;;;1.00;;
15130;SDS011;7666;50.920;4.628;2023-07-31T16:04:16;1.43;;;1.00;;
15130;SDS011;7666;50.920;4.628;2023-07-31T16:07:02;2.30;;;1.00;;
15130;SDS011;7666;50.920;4.628;2023-07-31T16:09:48;1.57;;;1.13;;
15130;SDS011;7666;50.920;4.628;2023-07-31T16:12:34;2.00;;;1.10;;
15130;SDS011;7666;50.920;4.628;2023-07-31T16:15:20;2.53;;;1.43;;
15130;SDS011;7666;50.920;4.628;2023-07-31T16:18:06;2.87;;;1.00;;
15130;SDS011;7666;50.920;4.628;2023-07-31T16:20:52;1.30;;;1.00;;
15130;SDS011;7666;50.920;4.628;2023-07-31T16:23:40;1.63;;;1.00;;
15130;SDS011;7666;50.920;4.628;2023-07-31T16:26:26;1.00;;;0.93;;
15130;SDS011;7666;50.920;4.628;2023-07-31T16:29:11;1.27;;;1.00;;
15130;SDS011;7666;50.920;4.628;2023-07-31T16:31:57;1.23;;;0.97;;
15130;SDS011;7666;50.920;4.628;2023-07-31T16:34:43;1.27;;;1.17;;
15130;SDS011;7666;50.920;4.628;2023-07-31T16:37:29;1.30;;;1.20;;
15130;SDS011;7666;50.920;4.628;2023-07-31T16:40:15;1.73;;;1.10;;
15130;SDS011;7666;50.920;4.628;2023-07-31T16:43:01;3.53;;;1.30;;
15130;SDS011;7666;50.920;4.628;2023-07-31T16:45:47;1.87;;;1.00;;
15130;SDS011;7666;50.920;4.628;2023-07-31T16:48:34;1.30;;;1.20;;
15130;SDS011;7666;50.920;4.628;2023-07-31T16:51:21;2.10;;;1.20;;
15130;SDS011;7666;50.920;4.628;2023-07-31T16:54:07;1.63;;;1.20;;
15130;SDS011;7666;50.920;4.628;2023-07-31T16:56:53;3.27;;;1.30;;
15130;SDS011;7666;50.920;4.628;2023-07-31T16:59:39;2.27;;;1.30;;
15130;SDS011;7666;50.920;4.628;2023-07-31T17:02:25;2.40;;;1.27;;
15130;SDS011;7666;50.920;4.628;2023-07-31T17:05:11;3.07;;;1.20;;
15130;SDS011;7666;50.920;4.628;2023-07-31T17:07:57;1.20;;;1.10;;
15130;SDS011;7666;50.920;4.628;2023-07-31T17:10:43;1.57;;;1.07;;